Time;durP1;ratioP1;P1;durP2;ratioP2;P2;SDS_P1;SDS_P2;PMS_P1;PMS_P2;Temp;Humidity;BMP_temperature;BMP_pressure;BME280_temperature;BME280_humidity;BME280_pressure;Samples;Min_cycle;Max_cycle;Signal;HPM_P1;HPM_P2
2022/09/26 00:01:44;;;;;;;8.00;4.30;;;;;;;;;;4972222;28;20087;-72
2022/09/26 00:04:29;;;;;;;9.93;4.78;;;;;;;;;;4972895;28;20049;-71
2022/09/26 00:06:56;;;;;;;12.55;3.97;;;;;;;;;;4972676;28;20034;-72
2022/09/26 00:09:23;;;;;;;10.77;3.80;;;;;;;;;;4974913;28;20054;-71
2022/09/26 00:11:50;;;;;;;10.15;3.65;;;;;;;;;;4974336;28;20023;-72
2022/09/26 00:14:26;;;;;;;8.65;3.80;;;;;;;;;;4974759;28;20219;-72
2022/09/26 00:16:52;;;;;;;11.35;4.13;;;;;;;;;;4970363;28;20519;-71
2022/09/26 00:19:19;;;;;;;7.97;3.60;;;;;;;;;;4967882;28;20171;-71
2022/09/26 00:21:45;;;;;;;9.52;3.40;;;;;;;;;;4967981;28;20282;-71
2022/09/26 00:24:11;;;;;;;8.63;3.45;;;;;;;;;;4966278;28;20427;-71
2022/09/26 00:26:37;;;;;;;11.57;3.80;;;;;;;;;;4966532;28;20041;-71
2022/09/26 00:29:06;;;;;;;12.52;4.03;;;;;;;;;;4968020;28;20035;-71
2022/09/26 00:31:33;;;;;;;9.13;3.50;;;;;;;;;;4969984;28;20037;-71
2022/09/26 00:33:59;;;;;;;13.23;3.72;;;;;;;;;;4965550;28;20026;-70
2022/09/26 00:36:25;;;;;;;10.02;4.35;;;;;;;;;;4966586;28;20019;-72
2022/09/26 00:38:52;;;;;;;15.02;4.20;;;;;;;;;;4963577;28;20042;-71
2022/09/26 00:41:18;;;;;;;12.05;4.05;;;;;;;;;;4980513;28;20053;-71
2022/09/26 00:43:45;;;;;;;10.13;4.10;;;;;;;;;;4964093;28;20519;-71
2022/09/26 00:46:32;;;;;;;11.63;4.00;;;;;;;;;;4963685;28;20077;-71
2022/09/26 00:49:07;;;;;;;8.52;4.43;;;;;;;;;;4979988;28;20492;-71
2022/09/26 00:51:34;;;;;;;6.45;4.07;;;;;;;;;;4965088;28;20035;-71
2022/09/26 00:54:00;;;;;;;10.63;4.65;;;;;;;;;;4964765;28;20033;-70
2022/09/26 00:56:29;;;;;;;10.23;4.15;;;;;;;;;;4965912;28;20053;-71
2022/09/26 00:59:15;;;;;;;11.57;4.03;;;;;;;;;;4969895;28;20076;-72
2022/09/26 01:01:41;;;;;;;8.30;3.92;;;;;;;;;;4962825;28;20088;-72
2022/09/26 01:04:08;;;;;;;10.38;3.60;;;;;;;;;;4968244;28;20335;-70
2022/09/26 01:06:34;;;;;;;8.18;3.65;;;;;;;;;;4968318;28;20571;-72
2022/09/26 01:09:07;;;;;;;7.47;3.40;;;;;;;;;;4965583;28;20035;-72
2022/09/26 01:11:33;;;;;;;8.73;2.90;;;;;;;;;;4964912;28;20033;-71
2022/09/26 01:13:59;;;;;;;9.88;3.00;;;;;;;;;;4965905;28;20035;-70
2022/09/26 01:16:26;;;;;;;13.07;3.30;;;;;;;;;;4966514;28;20054;-71
2022/09/26 01:18:52;;;;;;;14.80;3.55;;;;;;;;;;4963372;28;20061;-70
2022/09/26 01:21:18;;;;;;;12.45;2.92;;;;;;;;;;4964330;28;20199;-71
2022/09/26 01:24:13;;;;;;;8.45;3.42;;;;;;;;;;4972826;28;20099;-71
2022/09/26 01:26:42;;;;;;;9.20;3.25;;;;;;;;;;4962405;28;20122;-71
2022/09/26 01:29:17;;;;;;;10.05;3.38;;;;;;;;;;4975606;28;20023;-71
2022/09/26 01:34:45;;;;;;;10.55;4.10;;;;;;;;;;4963195;28;20518;-71
2022/09/26 01:37:19;;;;;;;11.27;3.92;;;;;;;;;;4961164;28;20023;-70
2022/09/26 01:40:15;;;;;;;9.57;4.13;;;;;;;;;;4966477;28;20042;-71
2022/09/26 01:42:58;;;;;;;7.88;3.97;;;;;;;;;;4951799;28;20035;-70
2022/09/26 01:45:27;;;;;;;10.85;4.85;;;;;;;;;;4965335;28;20992;-72
2022/09/26 01:48:12;;;;;;;9.05;4.50;;;;;;;;;;4965542;28;20039;-71
2022/09/26 01:50:38;;;;;;;11.00;4.75;;;;;;;;;;4962562;28;20089;-71
2022/09/26 01:53:22;;;;;;;13.38;5.00;;;;;;;;;;4967867;28;20035;-71
2022/09/26 01:55:52;;;;;;;16.65;5.88;;;;;;;;;;4966688;28;20117;-71
2022/09/26 01:58:30;;;;;;;13.60;5.82;;;;;;;;;;4964299;28;20109;-71
2022/09/26 02:00:58;;;;;;;14.23;6.38;;;;;;;;;;4968985;28;20489;-71
2022/09/26 02:03:29;;;;;;;14.77;6.30;;;;;;;;;;4966632;28;20197;-70
2022/09/26 02:06:00;;;;;;;13.98;6.35;;;;;;;;;;4966288;28;20034;-72
2022/09/26 02:08:30;;;;;;;12.43;5.70;;;;;;;;;;4966137;28;20114;-72
2022/09/26 02:11:01;;;;;;;14.13;5.95;;;;;;;;;;4967619;28;20034;-71
2022/09/26 02:13:33;;;;;;;14.20;6.10;;;;;;;;;;4971031;28;20042;-71
2022/09/26 02:16:02;;;;;;;12.32;6.03;;;;;;;;;;4981013;28;20030;-73
2022/09/26 02:18:49;;;;;;;16.00;6.53;;;;;;;;;;4969662;28;20035;-71
2022/09/26 02:21:18;;;;;;;14.00;6.03;;;;;;;;;;4963394;28;20089;-73
2022/09/26 02:23:44;;;;;;;10.70;6.10;;;;;;;;;;4971563;28;20027;-72
2022/09/26 02:26:10;;;;;;;12.20;6.30;;;;;;;;;;4968088;28;20023;-73
2022/09/26 02:28:37;;;;;;;13.52;6.72;;;;;;;;;;4971105;28;20141;-72
2022/09/26 02:31:04;;;;;;;14.27;6.68;;;;;;;;;;4965251;28;20063;-73
2022/09/26 02:33:31;;;;;;;12.38;7.22;;;;;;;;;;4969799;28;20436;-73
2022/09/26 02:35:57;;;;;;;14.95;7.07;;;;;;;;;;4962201;28;20425;-73
2022/09/26 02:38:25;;;;;;;18.00;7.30;;;;;;;;;;4968169;28;20784;-72
2022/09/26 02:41:12;;;;;;;18.63;7.28;;;;;;;;;;4962539;28;20042;-71
2022/09/26 02:43:53;;;;;;;12.77;7.03;;;;;;;;;;4968009;28;20076;-72
2022/09/26 02:46:22;;;;;;;13.70;7.20;;;;;;;;;;4965114;28;20501;-72
2022/09/26 02:48:51;;;;;;;12.40;7.07;;;;;;;;;;4966013;28;20035;-71
2022/09/26 02:51:41;;;;;;;13.93;6.85;;;;;;;;;;4965274;28;20505;-72
2022/09/26 02:54:13;;;;;;;16.98;6.85;;;;;;;;;;4995320;28;20105;-73
2022/09/26 02:56:58;;;;;;;13.18;7.18;;;;;;;;;;4963520;28;20097;-71
2022/09/26 02:59:36;;;;;;;13.77;7.07;;;;;;;;;;4969103;28;20041;-73
2022/09/26 03:02:14;;;;;;;12.85;6.82;;;;;;;;;;4977643;28;20150;-72
2022/09/26 03:04:49;;;;;;;9.77;7.03;;;;;;;;;;4963805;28;20150;-71
2022/09/26 03:07:18;;;;;;;18.20;7.13;;;;;;;;;;4969640;28;20061;-71
2022/09/26 03:09:45;;;;;;;11.55;6.05;;;;;;;;;;4967838;28;20049;-71
2022/09/26 03:12:12;;;;;;;10.75;6.30;;;;;;;;;;4963319;28;20053;-71
2022/09/26 03:14:40;;;;;;;11.77;6.93;;;;;;;;;;4998476;28;20548;-71
2022/09/26 03:17:06;;;;;;;13.60;5.85;;;;;;;;;;4964487;28;20049;-72
2022/09/26 03:19:45;;;;;;;10.85;6.75;;;;;;;;;;4965854;28;20041;-71
2022/09/26 03:22:11;;;;;;;17.15;6.50;;;;;;;;;;4966383;28;20088;-72
2022/09/26 03:24:40;;;;;;;10.18;5.88;;;;;;;;;;4968653;28;20464;-72
2022/09/26 03:27:06;;;;;;;12.43;6.57;;;;;;;;;;4970382;28;20041;-72
2022/09/26 03:29:32;;;;;;;16.83;6.13;;;;;;;;;;4967210;28;20061;-70
2022/09/26 03:31:59;;;;;;;12.63;6.30;;;;;;;;;;4963228;28;20046;-72
2022/09/26 03:34:26;;;;;;;19.15;6.15;;;;;;;;;;4962900;28;20335;-72
2022/09/26 03:36:52;;;;;;;12.15;6.07;;;;;;;;;;4977669;28;20490;-72
2022/09/26 03:39:18;;;;;;;13.88;6.25;;;;;;;;;;4967533;28;20027;-71
2022/09/26 03:41:44;;;;;;;17.00;6.93;;;;;;;;;;4963809;28;20543;-72
2022/09/26 03:44:11;;;;;;;12.05;6.03;;;;;;;;;;4966661;28;20035;-72
2022/09/26 03:46:37;;;;;;;13.27;7.18;;;;;;;;;;4964950;28;20589;-72
2022/09/26 03:49:03;;;;;;;12.73;6.47;;;;;;;;;;4963816;28;20066;-71
2022/09/26 03:51:29;;;;;;;10.32;6.03;;;;;;;;;;4962370;28;20050;-71
2022/09/26 03:53:55;;;;;;;9.02;6.07;;;;;;;;;;4969310;28;20039;-70
2022/09/26 03:56:22;;;;;;;17.63;5.78;;;;;;;;;;4960047;28;20031;-71
2022/09/26 03:58:48;;;;;;;9.82;5.68;;;;;;;;;;4982732;28;20083;-71
2022/09/26 04:01:15;;;;;;;11.00;6.05;;;;;;;;;;4965837;28;20059;-71
2022/09/26 04:03:42;;;;;;;15.60;6.70;;;;;;;;;;4966558;28;20450;-71
2022/09/26 04:06:09;;;;;;;10.20;6.00;;;;;;;;;;4962615;28;20038;-71
2022/09/26 04:08:39;;;;;;;14.77;5.82;;;;;;;;;;4965008;28;20845;-71
2022/09/26 04:11:07;;;;;;;11.95;5.78;;;;;;;;;;4965759;28;20547;-71
2022/09/26 04:13:33;;;;;;;10.18;5.82;;;;;;;;;;4967644;28;20831;-70
2022/09/26 04:16:04;;;;;;;15.75;6.47;;;;;;;;;;4967020;28;20134;-70
2022/09/26 04:18:30;;;;;;;10.00;5.82;;;;;;;;;;4963637;28;20101;-71
2022/09/26 04:20:57;;;;;;;18.55;6.43;;;;;;;;;;4967519;28;20109;-71
2022/09/26 04:23:24;;;;;;;10.68;6.45;;;;;;;;;;4962801;28;20041;-70
2022/09/26 04:25:50;;;;;;;9.38;5.90;;;;;;;;;;4967915;28;20130;-69
2022/09/26 04:28:16;;;;;;;10.05;5.07;;;;;;;;;;4963734;28;20030;-70
2022/09/26 04:30:42;;;;;;;8.90;5.30;;;;;;;;;;4977685;28;20257;-71
2022/09/26 04:33:07;;;;;;;14.18;5.40;;;;;;;;;;4967139;28;20566;-71
2022/09/26 04:35:34;;;;;;;13.70;4.93;;;;;;;;;;4968961;28;20080;-70
2022/09/26 04:38:00;;;;;;;16.45;5.20;;;;;;;;;;4962448;28;20526;-70
2022/09/26 04:40:26;;;;;;;15.60;5.32;;;;;;;;;;4965686;28;20042;-70
2022/09/26 04:42:52;;;;;;;8.80;4.65;;;;;;;;;;4963907;28;20034;-71
2022/09/26 04:45:18;;;;;;;13.90;5.50;;;;;;;;;;4967702;28;20038;-71
2022/09/26 04:47:44;;;;;;;9.20;4.43;;;;;;;;;;4964308;28;20039;-71
2022/09/26 04:50:10;;;;;;;11.65;4.95;;;;;;;;;;4966001;28;20047;-71
2022/09/26 04:52:36;;;;;;;11.65;5.10;;;;;;;;;;4965745;28;20048;-71
2022/09/26 04:55:02;;;;;;;11.23;4.68;;;;;;;;;;4984385;28;20605;-71
2022/09/26 04:57:29;;;;;;;12.50;5.10;;;;;;;;;;4980799;28;20030;-71
2022/09/26 04:59:55;;;;;;;14.23;6.28;;;;;;;;;;4962515;28;20031;-71
2022/09/26 05:02:21;;;;;;;17.35;5.53;;;;;;;;;;4969686;28;20038;-70
2022/09/26 05:04:48;;;;;;;11.82;5.35;;;;;;;;;;4984935;28;20038;-71
2022/09/26 05:07:15;;;;;;;19.08;5.65;;;;;;;;;;4971232;28;20435;-70
2022/09/26 05:09:41;;;;;;;11.80;5.53;;;;;;;;;;4976819;28;20045;-71
2022/09/26 05:12:07;;;;;;;7.22;4.90;;;;;;;;;;4962106;28;20070;-70
2022/09/26 05:14:36;;;;;;;11.25;5.38;;;;;;;;;;4959770;28;20042;-70
2022/09/26 05:17:02;;;;;;;13.57;5.03;;;;;;;;;;4967063;28;20027;-70
2022/09/26 05:19:28;;;;;;;15.55;5.20;;;;;;;;;;4975138;28;20073;-70
2022/09/26 05:21:54;;;;;;;10.40;4.57;;;;;;;;;;4965001;28;20043;-71
2022/09/26 05:27:06;;;;;;;10.75;4.35;;;;;;;;;;4965623;28;20058;-70
2022/09/26 05:29:32;;;;;;;11.75;4.47;;;;;;;;;;4988989;28;20039;-70
2022/09/26 05:32:00;;;;;;;8.93;4.45;;;;;;;;;;4964570;28;20045;-71
2022/09/26 05:34:26;;;;;;;12.75;4.68;;;;;;;;;;4965102;28;20047;-69
2022/09/26 05:36:52;;;;;;;11.00;5.15;;;;;;;;;;4991743;28;20083;-72
2022/09/26 05:42:07;;;;;;;9.43;4.25;;;;;;;;;;4963691;28;20053;-71
2022/09/26 05:44:33;;;;;;;7.72;3.72;;;;;;;;;;4966517;28;20479;-70
2022/09/26 05:46:59;;;;;;;13.88;4.53;;;;;;;;;;4974564;28;20046;-70
2022/09/26 05:49:25;;;;;;;8.93;4.28;;;;;;;;;;4966255;28;20054;-71
2022/09/26 05:51:52;;;;;;;13.60;4.53;;;;;;;;;;4963029;28;20429;-70
2022/09/26 05:54:18;;;;;;;10.32;5.20;;;;;;;;;;4963777;28;20030;-70
2022/09/26 05:56:44;;;;;;;7.38;4.35;;;;;;;;;;4964981;28;20022;-70
2022/09/26 05:59:10;;;;;;;7.97;4.28;;;;;;;;;;4977619;28;20042;-69
2022/09/26 06:01:36;;;;;;;8.50;4.18;;;;;;;;;;4960240;28;20035;-70
2022/09/26 06:04:02;;;;;;;9.25;4.60;;;;;;;;;;4962184;28;20064;-71
2022/09/26 06:06:31;;;;;;;7.97;3.80;;;;;;;;;;4965986;28;20564;-69
2022/09/26 06:08:57;;;;;;;11.68;3.85;;;;;;;;;;4979641;28;20152;-70
2022/09/26 06:11:26;;;;;;;11.57;4.53;;;;;;;;;;4963633;28;20031;-71
2022/09/26 06:13:54;;;;;;;8.88;3.85;;;;;;;;;;4970525;28;20086;-70
2022/09/26 06:16:20;;;;;;;9.85;3.83;;;;;;;;;;4964648;28;20042;-69
2022/09/26 06:18:49;;;;;;;10.27;4.00;;;;;;;;;;4965646;28;21324;-71
2022/09/26 06:21:16;;;;;;;10.38;4.35;;;;;;;;;;4965340;28;20055;-70
2022/09/26 06:23:42;;;;;;;11.77;3.80;;;;;;;;;;4971021;28;20035;-70
2022/09/26 06:26:10;;;;;;;8.45;4.00;;;;;;;;;;4968046;28;20019;-71
2022/09/26 06:28:37;;;;;;;14.43;4.05;;;;;;;;;;4974925;28;20039;-71
2022/09/26 06:31:10;;;;;;;10.25;3.60;;;;;;;;;;4968951;28;20037;-70
2022/09/26 06:33:36;;;;;;;11.73;4.00;;;;;;;;;;4963017;28;20054;-72
2022/09/26 06:36:04;;;;;;;7.40;3.75;;;;;;;;;;4970889;28;20518;-70
2022/09/26 06:38:30;;;;;;;13.68;3.80;;;;;;;;;;4969638;28;20076;-70
2022/09/26 06:40:56;;;;;;;7.63;3.92;;;;;;;;;;4977482;28;20396;-71
2022/09/26 06:43:22;;;;;;;7.43;3.85;;;;;;;;;;4969390;28;20027;-70
2022/09/26 06:45:48;;;;;;;8.30;3.97;;;;;;;;;;4968409;28;20034;-71
2022/09/26 06:48:18;;;;;;;9.52;4.00;;;;;;;;;;4992015;28;20041;-70
2022/09/26 06:50:44;;;;;;;15.98;4.35;;;;;;;;;;4977473;28;20109;-70
2022/09/26 06:53:10;;;;;;;8.52;4.45;;;;;;;;;;4980808;28;20038;-70
2022/09/26 06:55:36;;;;;;;10.32;4.10;;;;;;;;;;4979615;28;20042;-70
2022/09/26 06:58:02;;;;;;;8.18;4.25;;;;;;;;;;4958296;28;20032;-69
2022/09/26 07:00:28;;;;;;;7.90;4.18;;;;;;;;;;4975938;28;20060;-70
2022/09/26 07:02:55;;;;;;;10.90;3.90;;;;;;;;;;4973309;28;20042;-69
2022/09/26 07:05:22;;;;;;;15.35;4.72;;;;;;;;;;4990366;28;20038;-70
2022/09/26 07:07:48;;;;;;;12.07;4.22;;;;;;;;;;4978780;28;20042;-69
2022/09/26 07:10:17;;;;;;;9.93;4.25;;;;;;;;;;4973590;28;20030;-70
2022/09/26 07:12:45;;;;;;;11.15;4.45;;;;;;;;;;4970277;28;20062;-70
2022/09/26 07:15:14;;;;;;;11.10;4.20;;;;;;;;;;4967023;28;20100;-69
2022/09/26 07:17:41;;;;;;;10.93;4.13;;;;;;;;;;4972876;28;20027;-68
2022/09/26 07:20:09;;;;;;;7.32;3.80;;;;;;;;;;4971145;28;20023;-70
2022/09/26 07:22:36;;;;;;;10.82;4.10;;;;;;;;;;4975561;28;20034;-69
2022/09/26 07:25:02;;;;;;;9.70;3.92;;;;;;;;;;4973774;28;20039;-69
2022/09/26 07:27:28;;;;;;;10.23;3.97;;;;;;;;;;4969372;28;20077;-69
2022/09/26 07:29:55;;;;;;;9.50;4.18;;;;;;;;;;4971654;28;20026;-70
2022/09/26 07:32:21;;;;;;;10.40;3.70;;;;;;;;;;4978723;28;20026;-70
2022/09/26 07:34:48;;;;;;;9.50;3.80;;;;;;;;;;4976527;28;20488;-70
2022/09/26 07:37:16;;;;;;;11.88;4.20;;;;;;;;;;4974590;28;20456;-70
2022/09/26 07:39:42;;;;;;;16.42;4.05;;;;;;;;;;4985689;28;20030;-70
2022/09/26 07:42:08;;;;;;;10.63;4.00;;;;;;;;;;4978708;28;20048;-70
2022/09/26 07:44:35;;;;;;;6.68;3.65;;;;;;;;;;4975709;28;20042;-69
2022/09/26 07:52:30;;;;;;;10.23;4.00;;;;;;;;;;4970720;28;20093;-69
2022/09/26 07:54:56;;;;;;;8.80;3.97;;;;;;;;;;4982789;28;20125;-69
2022/09/26 07:57:22;;;;;;;10.88;4.22;;;;;;;;;;4975305;28;20054;-69
2022/09/26 07:59:49;;;;;;;10.90;3.78;;;;;;;;;;4982305;28;20551;-70
2022/09/26 08:02:27;;;;;;;8.73;3.90;;;;;;;;;;4970988;28;20029;-69
2022/09/26 08:04:53;;;;;;;7.90;3.90;;;;;;;;;;4983650;28;20031;-70
2022/09/26 08:07:20;;;;;;;13.20;4.32;;;;;;;;;;4978565;28;20042;-70
2022/09/26 08:09:46;;;;;;;6.35;3.60;;;;;;;;;;4973776;28;20034;-69
2022/09/26 08:12:13;;;;;;;10.02;3.90;;;;;;;;;;4975656;28;20399;-69
2022/09/26 08:14:39;;;;;;;9.23;4.13;;;;;;;;;;4991021;28;20498;-70
2022/09/26 08:17:05;;;;;;;10.82;4.13;;;;;;;;;;4977612;28;20507;-69
2022/09/26 08:19:31;;;;;;;9.30;4.38;;;;;;;;;;4981507;28;20121;-69
2022/09/26 08:21:57;;;;;;;14.85;4.63;;;;;;;;;;4973819;28;20161;-69
2022/09/26 08:24:24;;;;;;;15.70;5.70;;;;;;;;;;4986614;28;20947;-70
2022/09/26 08:26:49;;;;;;;9.13;5.15;;;;;;;;;;4976567;28;20558;-70
2022/09/26 08:29:16;;;;;;;10.93;5.03;;;;;;;;;;4984197;28;20067;-69
2022/09/26 08:31:42;;;;;;;10.82;5.20;;;;;;;;;;4968824;28;20042;-69
2022/09/26 08:34:07;;;;;;;11.23;5.07;;;;;;;;;;4980746;28;20039;-70
2022/09/26 08:36:35;;;;;;;12.88;5.10;;;;;;;;;;4976339;28;20073;-69
2022/09/26 08:39:01;;;;;;;15.13;5.28;;;;;;;;;;4982651;28;20113;-70
2022/09/26 08:41:40;;;;;;;13.55;6.25;;;;;;;;;;4972410;28;20041;-69
2022/09/26 08:44:27;;;;;;;12.68;5.88;;;;;;;;;;4983227;28;20088;-69
2022/09/26 08:47:16;;;;;;;14.88;5.95;;;;;;;;;;4980142;28;20033;-70
2022/09/26 08:50:01;;;;;;;16.13;6.00;;;;;;;;;;4998225;28;20511;-72
2022/09/26 08:52:27;;;;;;;16.33;5.93;;;;;;;;;;4966039;28;20776;-71
2022/09/26 08:54:56;;;;;;;18.10;6.22;;;;;;;;;;4976333;28;20121;-71
2022/09/26 08:57:48;;;;;;;17.95;7.15;;;;;;;;;;4970961;28;20067;-70
2022/09/26 09:00:17;;;;;;;18.80;7.70;;;;;;;;;;4970074;28;20142;-71
2022/09/26 09:03:02;;;;;;;16.88;8.10;;;;;;;;;;4980840;28;20034;-70
2022/09/26 09:05:33;;;;;;;19.00;9.20;;;;;;;;;;4975258;28;20121;-70
2022/09/26 09:08:00;;;;;;;20.02;9.65;;;;;;;;;;4977877;28;20101;-70
2022/09/26 09:10:46;;;;;;;22.60;9.70;;;;;;;;;;4974876;28;20510;-70
2022/09/26 09:13:21;;;;;;;17.73;8.38;;;;;;;;;;4972813;28;20047;-70
2022/09/26 09:15:50;;;;;;;13.00;7.07;;;;;;;;;;4968325;28;20579;-70
2022/09/26 09:18:19;;;;;;;16.27;7.18;;;;;;;;;;4964921;28;20022;-70
2022/09/26 09:20:48;;;;;;;22.00;8.95;;;;;;;;;;4976182;28;20031;-71
2022/09/26 09:23:17;;;;;;;15.20;7.65;;;;;;;;;;4974181;28;20126;-70
2022/09/26 09:25:53;;;;;;;14.07;7.15;;;;;;;;;;4968928;28;20035;-69
2022/09/26 09:28:36;;;;;;;16.92;7.63;;;;;;;;;;4967563;28;20027;-70
2022/09/26 09:31:08;;;;;;;18.17;6.90;;;;;;;;;;4970738;28;20030;-71
2022/09/26 09:33:57;;;;;;;17.15;7.47;;;;;;;;;;4984645;28;20031;-70
2022/09/26 09:36:27;;;;;;;16.25;7.75;;;;;;;;;;4968644;28;20121;-69
2022/09/26 09:38:53;;;;;;;20.45;7.10;;;;;;;;;;4983203;28;20366;-70
2022/09/26 09:41:22;;;;;;;15.35;6.90;;;;;;;;;;4971116;28;20031;-69
2022/09/26 09:43:51;;;;;;;27.83;8.88;;;;;;;;;;4971435;28;20089;-70
2022/09/26 09:46:26;;;;;;;22.15;8.30;;;;;;;;;;4971617;28;20411;-70
2022/09/26 09:48:55;;;;;;;22.80;8.23;;;;;;;;;;4969314;28;20162;-70
2022/09/26 09:51:44;;;;;;;18.13;8.60;;;;;;;;;;4966214;28;20200;-70
2022/09/26 09:54:16;;;;;;;17.52;8.45;;;;;;;;;;4969599;28;20038;-70
2022/09/26 09:56:50;;;;;;;21.15;8.25;;;;;;;;;;4964341;28;20587;-70
2022/09/26 09:59:35;;;;;;;20.30;9.40;;;;;;;;;;4968579;28;20492;-70
2022/09/26 10:02:28;;;;;;;16.63;8.27;;;;;;;;;;4968644;28;20038;-70
2022/09/26 10:05:00;;;;;;;17.95;8.50;;;;;;;;;;4978536;28;20085;-69
2022/09/26 10:07:26;;;;;;;24.50;8.52;;;;;;;;;;4975153;28;20039;-69
2022/09/26 10:09:52;;;;;;;16.90;7.95;;;;;;;;;;4980716;28;20139;-70
2022/09/26 10:12:20;;;;;;;14.18;8.52;;;;;;;;;;4968200;28;20075;-70
2022/09/26 10:14:55;;;;;;;13.35;8.18;;;;;;;;;;4967702;28;20057;-70
2022/09/26 10:17:22;;;;;;;14.20;8.23;;;;;;;;;;4968628;28;20123;-70
2022/09/26 10:19:48;;;;;;;22.48;9.20;;;;;;;;;;4984163;28;20493;-70
2022/09/26 10:22:22;;;;;;;15.25;8.90;;;;;;;;;;4986437;28;20030;-70
2022/09/26 10:24:49;;;;;;;20.65;9.63;;;;;;;;;;4988465;28;20085;-71
2022/09/26 10:27:21;;;;;;;14.35;8.80;;;;;;;;;;4972694;28;20306;-70
2022/09/26 10:29:55;;;;;;;14.55;9.23;;;;;;;;;;4954556;28;20527;-69
2022/09/26 10:32:21;;;;;;;13.35;9.77;;;;;;;;;;4967263;28;20081;-70
2022/09/26 10:35:02;;;;;;;18.25;10.60;;;;;;;;;;4967060;28;20034;-70
2022/09/26 10:37:29;;;;;;;17.20;11.10;;;;;;;;;;4972971;28;20070;-69
2022/09/26 10:42:43;;;;;;;21.17;10.65;;;;;;;;;;4966777;28;20560;-71
2022/09/26 10:45:14;;;;;;;18.17;10.57;;;;;;;;;;4973588;28;20029;-70
2022/09/26 10:47:44;;;;;;;18.98;11.52;;;;;;;;;;4974267;28;20442;-70
2022/09/26 10:50:15;;;;;;;21.95;12.38;;;;;;;;;;4981335;28;20109;-70
2022/09/26 10:52:41;;;;;;;19.13;12.10;;;;;;;;;;4972520;28;20046;-69
2022/09/26 10:55:26;;;;;;;16.23;11.95;;;;;;;;;;4984833;28;20037;-70
2022/09/26 10:57:53;;;;;;;14.52;11.93;;;;;;;;;;4973534;28;20042;-69
2022/09/26 11:00:39;;;;;;;18.08;11.93;;;;;;;;;;4975296;28;20022;-69
2022/09/26 11:03:13;;;;;;;17.77;11.80;;;;;;;;;;4979000;28;20030;-70
2022/09/26 11:05:55;;;;;;;17.73;12.25;;;;;;;;;;4975070;28;20038;-70
2022/09/26 11:08:22;;;;;;;17.27;12.10;;;;;;;;;;4976769;28;20134;-70
2022/09/26 11:10:48;;;;;;;16.88;13.45;;;;;;;;;;4969026;28;20061;-71
2022/09/26 11:13:15;;;;;;;19.02;12.05;;;;;;;;;;4984134;28;20488;-70
2022/09/26 11:15:51;;;;;;;20.75;13.23;;;;;;;;;;4977737;28;20433;-69
2022/09/26 11:18:25;;;;;;;23.95;13.90;;;;;;;;;;4984885;28;20053;-70
2022/09/26 11:20:52;;;;;;;22.13;13.07;;;;;;;;;;4971819;28;20150;-69
2022/09/26 11:23:21;;;;;;;14.27;11.57;;;;;;;;;;4974078;28;20022;-70
2022/09/26 11:25:52;;;;;;;26.40;14.52;;;;;;;;;;4974550;28;20104;-70
2022/09/26 11:28:20;;;;;;;20.40;13.40;;;;;;;;;;4968181;28;20051;-69
2022/09/26 11:30:49;;;;;;;19.35;12.93;;;;;;;;;;4974641;28;20522;-70
2022/09/26 11:33:17;;;;;;;23.98;13.00;;;;;;;;;;4984279;28;20069;-70
2022/09/26 11:35:53;;;;;;;18.77;12.85;;;;;;;;;;4979506;28;20038;-70
2022/09/26 11:38:20;;;;;;;19.40;13.15;;;;;;;;;;4974835;28;20022;-70
2022/09/26 11:40:59;;;;;;;20.08;12.35;;;;;;;;;;4984132;28;20031;-70
2022/09/26 11:43:45;;;;;;;16.40;13.00;;;;;;;;;;4974229;28;20027;-70
2022/09/26 11:46:33;;;;;;;16.77;12.90;;;;;;;;;;4965066;28;20043;-70
2022/09/26 11:49:02;;;;;;;15.32;12.13;;;;;;;;;;4973034;28;20037;-70
2022/09/26 11:51:32;;;;;;;15.65;11.35;;;;;;;;;;4967362;28;20153;-71
2022/09/26 11:54:00;;;;;;;14.38;12.00;;;;;;;;;;4952102;28;20023;-70
2022/09/26 11:56:28;;;;;;;17.00;12.48;;;;;;;;;;4965425;28;20488;-71
2022/09/26 11:59:01;;;;;;;20.67;13.48;;;;;;;;;;4974050;28;20475;-71
2022/09/26 12:01:38;;;;;;;18.33;12.70;;;;;;;;;;4974366;28;20606;-71
2022/09/26 12:04:24;;;;;;;18.13;13.60;;;;;;;;;;4973810;28;20022;-71
2022/09/26 12:07:05;;;;;;;16.05;12.30;;;;;;;;;;4971719;28;20114;-71
2022/09/26 12:09:44;;;;;;;18.02;13.73;;;;;;;;;;4977136;28;20089;-72
2022/09/26 12:12:31;;;;;;;15.88;14.20;;;;;;;;;;4975478;28;20034;-73
2022/09/26 12:14:57;;;;;;;17.58;14.00;;;;;;;;;;4970208;28;20047;-74
2022/09/26 12:17:34;;;;;;;22.52;12.82;;;;;;;;;;4963811;28;20503;-73
2022/09/26 12:20:12;;;;;;;13.15;11.73;;;;;;;;;;4967539;28;20443;-72
2022/09/26 12:22:47;;;;;;;20.95;13.20;;;;;;;;;;4964589;28;20122;-73
2022/09/26 12:25:22;;;;;;;16.60;12.43;;;;;;;;;;4966512;28;20030;-72
2022/09/26 12:28:09;;;;;;;15.95;12.82;;;;;;;;;;4964790;28;20023;-71
2022/09/26 12:30:35;;;;;;;15.38;12.25;;;;;;;;;;4967832;28;20030;-71
2022/09/26 12:33:10;;;;;;;13.45;12.05;;;;;;;;;;4978670;28;20039;-71
2022/09/26 12:35:36;;;;;;;19.02;13.32;;;;;;;;;;4965931;28;20147;-71
2022/09/26 12:38:23;;;;;;;15.55;12.25;;;;;;;;;;4981167;28;20445;-71
2022/09/26 12:40:52;;;;;;;14.23;12.63;;;;;;;;;;4966292;28;20030;-71
2022/09/26 12:43:51;;;;;;;13.48;11.50;;;;;;;;;;4965056;28;20035;-71
2022/09/26 12:46:23;;;;;;;12.95;11.40;;;;;;;;;;4975093;28;20130;-70
2022/09/26 12:48:59;;;;;;;13.43;11.38;;;;;;;;;;4966920;28;20142;-69
2022/09/26 12:51:36;;;;;;;15.73;11.80;;;;;;;;;;4964605;28;20058;-70
2022/09/26 12:54:21;;;;;;;14.98;10.70;;;;;;;;;;4968096;28;20031;-70
2022/09/26 12:56:56;;;;;;;11.95;10.65;;;;;;;;;;4965702;28;20030;-69
2022/09/26 12:59:38;;;;;;;11.68;9.52;;;;;;;;;;4964785;28;20030;-69
2022/09/26 13:02:23;;;;;;;11.65;9.95;;;;;;;;;;4966577;28;20026;-70
2022/09/26 13:05:05;;;;;;;11.35;7.93;;;;;;;;;;4965135;28;20104;-70
2022/09/26 13:07:41;;;;;;;10.27;7.53;;;;;;;;;;4960388;28;20137;-72
2022/09/26 13:10:09;;;;;;;12.63;8.07;;;;;;;;;;4964434;28;20031;-74
2022/09/26 13:12:39;;;;;;;11.00;6.90;;;;;;;;;;4969583;28;20035;-73
2022/09/26 13:15:20;;;;;;;10.60;8.18;;;;;;;;;;4963651;28;20073;-73
2022/09/26 13:17:59;;;;;;;9.25;7.32;;;;;;;;;;4960924;28;20162;-72
2022/09/26 13:20:39;;;;;;;7.82;6.45;;;;;;;;;;4977486;28;20038;-72
2022/09/26 13:23:31;;;;;;;7.93;6.70;;;;;;;;;;4967689;28;20039;-72
2022/09/26 13:26:00;;;;;;;8.60;6.40;;;;;;;;;;4968313;28;20046;-72
2022/09/26 13:28:36;;;;;;;8.32;6.78;;;;;;;;;;4962457;28;20022;-72
2022/09/26 13:31:03;;;;;;;10.18;7.07;;;;;;;;;;4967254;28;20039;-73
2022/09/26 13:33:43;;;;;;;7.47;5.97;;;;;;;;;;4963831;28;20086;-72
2022/09/26 13:36:10;;;;;;;12.25;7.43;;;;;;;;;;4964022;28;20035;-74
2022/09/26 13:38:55;;;;;;;8.48;6.57;;;;;;;;;;4964807;28;20153;-72
2022/09/26 13:41:21;;;;;;;9.07;7.32;;;;;;;;;;4964378;28;20039;-72
2022/09/26 13:43:53;;;;;;;7.65;6.28;;;;;;;;;;4964575;28;20047;-72
2022/09/26 13:46:38;;;;;;;8.75;6.25;;;;;;;;;;4966150;28;20072;-72
2022/09/26 13:49:23;;;;;;;6.72;5.47;;;;;;;;;;4963527;28;20049;-72
2022/09/26 13:52:09;;;;;;;7.70;5.88;;;;;;;;;;4964733;28;20081;-73
2022/09/26 13:54:39;;;;;;;9.48;5.90;;;;;;;;;;4969604;28;20042;-73
2022/09/26 13:57:24;;;;;;;12.27;5.25;;;;;;;;;;4976588;28;20106;-73
2022/09/26 13:59:53;;;;;;;12.20;5.15;;;;;;;;;;4975529;28;20031;-72
2022/09/26 14:02:24;;;;;;;9.75;5.53;;;;;;;;;;4974244;28;20088;-72
2022/09/26 14:04:50;;;;;;;;;;;;;;;;;;4976362;28;20042;-72
2022/09/26 14:10:02;;;;;;;11.70;4.88;;;;;;;;;;4971122;28;20038;-72
2022/09/26 14:12:51;;;;;;;8.90;4.38;;;;;;;;;;4968542;28;20968;-72
2022/09/26 14:15:17;;;;;;;11.05;4.60;;;;;;;;;;4966623;28;20514;-72
2022/09/26 14:17:43;;;;;;;10.25;4.80;;;;;;;;;;4968345;28;20022;-72
2022/09/26 14:20:18;;;;;;;9.95;5.28;;;;;;;;;;4973415;28;20070;-72
2022/09/26 14:22:52;;;;;;;15.35;6.28;;;;;;;;;;4971385;28;20039;-73
2022/09/26 14:25:37;;;;;;;11.77;5.28;;;;;;;;;;4972776;28;20051;-72
2022/09/26 14:28:29;;;;;;;13.15;5.43;;;;;;;;;;4971176;28;20027;-73
2022/09/26 14:31:17;;;;;;;14.40;6.00;;;;;;;;;;4971439;28;20043;-72
2022/09/26 14:33:44;;;;;;;12.20;6.00;;;;;;;;;;4983704;28;20404;-72
2022/09/26 14:36:37;;;;;;;13.43;6.05;;;;;;;;;;4973059;28;20031;-73
2022/09/26 14:39:04;;;;;;;15.45;6.75;;;;;;;;;;4971791;28;20043;-73
2022/09/26 14:41:35;;;;;;;15.25;7.85;;;;;;;;;;4971226;28;20027;-73
2022/09/26 14:44:03;;;;;;;15.80;8.57;;;;;;;;;;4968501;28;20030;-73
2022/09/26 14:46:31;;;;;;;22.63;9.23;;;;;;;;;;4981851;28;20035;-73
2022/09/26 14:49:04;;;;;;;21.20;8.70;;;;;;;;;;4969725;28;20051;-73
2022/09/26 14:51:32;;;;;;;18.85;7.25;;;;;;;;;;4970980;28;20060;-75
2022/09/26 14:54:03;;;;;;;10.82;5.47;;;;;;;;;;4973525;28;20483;-73
2022/09/26 14:56:40;;;;;;;13.90;5.25;;;;;;;;;;4970523;28;20038;-73
2022/09/26 14:59:18;;;;;;;20.05;5.78;;;;;;;;;;4969812;28;20063;-73
2022/09/26 15:01:44;;;;;;;16.92;5.75;;;;;;;;;;4967930;28;20123;-73
2022/09/26 15:04:27;;;;;;;16.80;5.10;;;;;;;;;;4975952;28;20097;-76
2022/09/26 15:07:00;;;;;;;25.85;5.38;;;;;;;;;;4966212;28;20030;-72
2022/09/26 15:09:43;;;;;;;20.13;6.63;;;;;;;;;;4964703;28;20057;-73
2022/09/26 15:12:17;;;;;;;20.92;6.32;;;;;;;;;;4970412;28;20034;-73
2022/09/26 15:14:47;;;;;;;26.55;5.57;;;;;;;;;;4968420;28;20101;-72